Pagrindinis puslapis
METAR-TAF:

METAR-TAF

Oro uostai :

Merzifon, Turkija

platuma: 40-51N, ilguma: 035-35E, Aukštis: 545 m

Dabartinis oras

Ataskaita buvo paskelbta 48 minutes, ne 03:50 UTC
Ramus vėjas
Temperatūra -2°C
Drėgmė 93%
Slėgis 1017 hPa
Matomumas: 7000 m
Su prošvaistėmis ne aukštis 7000 ft

METAR: LTAP 100350Z 00000KT 7000 BKN070 M02/M03 Q1017 NOSIG

Laikas: 07:38 (04:38 UTC)

Prognozė

Ataskaita buvo paskelbta 5 valandos ir 58 minutes, ne 22:40 UTC
Prognozė galioja nuo 10 metu 00 UTC su 10 metu 24 UTC
Vėjas 2 kt nuo kintamojo kryptimis
Matomumas: 7000 m
Tikimybė 40% :
Laikinai
nuo 10 metu 03 UTC su 10 metu 06 UTC
Matomumas: 2500 m
Išsisklaidę debesys ne aukštis 1000 ft
rūkana
Tapsmas
nuo 10 metu 07 UTC su 10 metu 10 UTC
Išsisklaidę debesys ne aukštis 4000 ft
Tapsmas
nuo 10 metu 15 UTC su 10 metu 18 UTC
Matomumas 10 km arba daugiau
nėra debesų žemiau 1500 m ir nėra kamuolinių lietaus debesų

TAF: LTAP 092240Z 1000/1024 VRB02KT 7000 NSC PROB40 TEMPO 1003/1006 2500 BR SCT010 BECMG 1007/1010 SCT040 BECMG 1015/1018 CAVOK

Orai ataskaitas ir orų prognozės (METAR, TAF).

turimą stotys yra geltonos ir raudonos taškus žemėlapyje.

Perkelti pele per norėdami pamatyti stoties vardą.

Tada spustelėkite, norėdami matyti oro stebėjimo ir prognozės.

Norėdami pakeisti žemėlapį: spustelėkite ant žalios mygtukų su juodo kryžiaus žemyn,; žalią mygtuką su brūkšneliu, jei norite nutolinti; arba žalių rodyklių gretimoms žemėlapius.


METAR-TAF: